Time;durP1;ratioP1;P1;durP2;ratioP2;P2;SDS_P1;SDS_P2;PMS_P1;PMS_P2;Temp;Humidity;BMP_temperature;BMP_pressure;BME280_temperature;BME280_humidity;BME280_pressure;Samples;Min_cycle;Max_cycle;Signal;HPM_P1;HPM_P2
2023/09/18 00:00:46;;;;;;;15.93;11.48;;;21.10;94.20;;;;;;4946789;28;20523;-76
2023/09/18 00:03:11;;;;;;;12.77;10.57;;;21.10;94.30;;;;;;4952896;28;20491;-75
2023/09/18 00:05:37;;;;;;;14.18;10.45;;;21.10;94.50;;;;;;4962562;28;20024;-77
2023/09/18 00:08:03;;;;;;;13.85;9.50;;;21.10;94.30;;;;;;4961067;28;20043;-76
2023/09/18 00:10:30;;;;;;;11.38;8.98;;;21.10;94.20;;;;;;4960795;28;20121;-75
2023/09/18 00:12:56;;;;;;;12.68;8.52;;;21.10;94.00;;;;;;4964264;28;20034;-77
2023/09/18 00:15:22;;;;;;;10.65;7.55;;;21.00;93.90;;;;;;4960108;28;20097;-75
2023/09/18 00:17:48;;;;;;;11.23;7.45;;;21.00;93.60;;;;;;4953006;28;20035;-75
2023/09/18 00:20:17;;;;;;;8.93;6.63;;;20.90;93.40;;;;;;4942621;28;20499;-76
2023/09/18 00:22:43;;;;;;;9.77;5.90;;;20.90;93.30;;;;;;4941508;28;20051;-76
2023/09/18 00:25:08;;;;;;;8.45;5.55;;;20.80;93.00;;;;;;4949775;28;20097;-76
2023/09/18 00:27:35;;;;;;;9.50;5.93;;;20.90;93.00;;;;;;4941242;28;20062;-75
2023/09/18 00:30:03;;;;;;;10.18;6.57;;;20.80;92.90;;;;;;4956512;28;20031;-76
2023/09/18 00:32:29;;;;;;;11.35;6.20;;;20.80;93.00;;;;;;4950553;28;20059;-77
2023/09/18 00:34:55;;;;;;;9.32;6.25;;;20.90;93.00;;;;;;4961356;28;20023;-76
2023/09/18 00:37:21;;;;;;;10.63;5.97;;;20.80;92.90;;;;;;4955827;28;20402;-76
2023/09/18 00:39:46;;;;;;;8.45;6.35;;;20.80;92.80;;;;;;4936283;28;20043;-77
2023/09/18 00:42:13;;;;;;;10.52;7.13;;;20.80;92.80;;;;;;4936252;28;20122;-76
2023/09/18 00:44:40;;;;;;;11.65;7.63;;;20.80;92.90;;;;;;4955105;28;20503;-75
2023/09/18 00:47:08;;;;;;;10.77;7.40;;;20.80;93.00;;;;;;4950359;28;20050;-77
2023/09/18 00:49:35;;;;;;;11.80;7.38;;;20.80;93.00;;;;;;4938882;28;20042;-76
2023/09/18 00:52:02;;;;;;;12.55;8.88;;;20.70;93.00;;;;;;4938742;28;20077;-76
2023/09/18 00:54:29;;;;;;;11.77;8.48;;;20.70;93.20;;;;;;4936651;28;20194;-78
2023/09/18 00:56:54;;;;;;;9.93;7.50;;;20.70;93.30;;;;;;4940034;28;20215;-76
2023/09/18 00:59:21;;;;;;;11.88;8.43;;;20.70;93.30;;;;;;4948620;28;20050;-78
2023/09/18 01:01:48;;;;;;;15.68;8.77;;;20.70;93.40;;;;;;4946794;28;20034;-76
2023/09/18 01:04:16;;;;;;;12.65;7.80;;;20.70;93.40;;;;;;4948684;28;20081;-75
2023/09/18 01:06:42;;;;;;;10.98;8.18;;;20.70;93.50;;;;;;4952314;28;20034;-78
2023/09/18 01:09:12;;;;;;;12.95;8.15;;;20.70;93.60;;;;;;4949971;28;20043;-76
2023/09/18 01:12:04;;;;;;;13.55;7.72;;;20.70;93.70;;;;;;4956266;28;20353;-76
2023/09/18 01:14:58;;;;;;;10.35;7.65;;;20.70;93.60;;;;;;4957839;28;20066;-77
2023/09/18 01:17:25;;;;;;;12.48;8.80;;;20.60;93.50;;;;;;4987922;28;20112;-76
2023/09/18 01:19:51;;;;;;;10.77;7.57;;;20.60;93.60;;;;;;4956414;28;20030;-75
2023/09/18 01:22:19;;;;;;;13.68;8.93;;;20.60;93.60;;;;;;4945918;28;20034;-76
2023/09/18 01:24:49;;;;;;;13.68;8.15;;;20.60;93.60;;;;;;4957489;28;20810;-76
2023/09/18 01:27:18;;;;;;;12.02;8.10;;;20.70;93.60;;;;;;4986033;28;20029;-76
2023/09/18 01:29:45;;;;;;;14.80;8.30;;;20.60;93.70;;;;;;4960468;28;20035;-78
2023/09/18 01:32:11;;;;;;;11.15;7.95;;;20.60;93.80;;;;;;4956003;28;20027;-78
2023/09/18 01:34:42;;;;;;;11.02;8.05;;;20.60;93.80;;;;;;4948804;28;20039;-75
2023/09/18 01:37:10;;;;;;;10.15;7.25;;;20.60;93.70;;;;;;4939997;28;20082;-78
2023/09/18 01:39:36;;;;;;;10.15;7.32;;;20.60;93.70;;;;;;4945462;28;20027;-79
2023/09/18 01:42:06;;;;;;;10.85;8.00;;;20.60;93.80;;;;;;4940946;28;20039;-77
2023/09/18 01:44:37;;;;;;;10.85;8.05;;;20.60;93.80;;;;;;4948361;28;20055;-77
2023/09/18 01:47:04;;;;;;;12.88;8.07;;;20.60;93.90;;;;;;4942688;28;20047;-76
2023/09/18 01:49:34;;;;;;;13.48;8.20;;;20.60;94.00;;;;;;5033677;28;20025;-75
2023/09/18 01:52:00;;;;;;;11.55;7.47;;;20.50;93.90;;;;;;5031069;28;20066;-76
2023/09/18 01:54:26;;;;;;;11.43;7.55;;;20.50;94.00;;;;;;4944539;28;20058;-76
2023/09/18 01:56:53;;;;;;;10.80;7.43;;;20.50;94.00;;;;;;4946704;28;20027;-75
2023/09/18 01:59:19;;;;;;;10.82;7.50;;;20.50;94.00;;;;;;4935808;28;20047;-76
2023/09/18 02:01:45;;;;;;;9.32;7.10;;;20.50;93.90;;;;;;4947745;28;20043;-76
2023/09/18 02:04:11;;;;;;;9.10;6.57;;;20.40;93.90;;;;;;5018572;28;20033;-76
2023/09/18 02:06:36;;;;;;;10.75;6.63;;;20.40;94.00;;;;;;5038743;28;20053;-76
2023/09/18 02:09:07;;;;;;;11.02;7.25;;;20.40;94.00;;;;;;4938976;28;20066;-75
2023/09/18 02:11:33;;;;;;;9.45;6.63;;;20.50;94.00;;;;;;4940148;28;20221;-76
2023/09/18 02:13:58;;;;;;;10.88;6.72;;;20.40;93.80;;;;;;4943136;28;20154;-78
2023/09/18 02:16:24;;;;;;;10.18;6.47;;;20.40;93.70;;;;;;4948169;28;20019;-76
2023/09/18 02:18:50;;;;;;;9.65;5.68;;;20.40;93.70;;;;;;4946099;28;20028;-75
2023/09/18 02:21:20;;;;;;;9.43;5.22;;;20.40;93.60;;;;;;4949929;28;20034;-76
2023/09/18 02:23:48;;;;;;;12.15;6.15;;;20.40;93.60;;;;;;4962039;28;20043;-74
2023/09/18 02:26:14;;;;;;;9.32;5.38;;;20.40;93.60;;;;;;4959092;28;20035;-75
2023/09/18 02:28:39;;;;;;;10.35;5.18;;;20.40;93.70;;;;;;4956365;27;20057;-76
2023/09/18 02:31:05;;;;;;;8.65;5.43;;;20.30;93.60;;;;;;4956688;28;20023;-76
2023/09/18 02:33:30;;;;;;;7.97;4.88;;;20.30;93.40;;;;;;4954584;28;20535;-75
2023/09/18 02:35:57;;;;;;;9.07;4.25;;;20.20;93.10;;;;;;4962104;28;20035;-76
2023/09/18 02:38:23;;;;;;;7.28;4.10;;;20.20;92.80;;;;;;4960815;28;20038;-77
2023/09/18 02:40:48;;;;;;;7.90;4.25;;;20.20;92.50;;;;;;4958661;28;20100;-77
2023/09/18 02:43:14;;;;;;;6.50;3.83;;;20.10;92.30;;;;;;4954426;28;20020;-74
2023/09/18 02:45:40;;;;;;;7.90;4.00;;;20.10;92.20;;;;;;4948098;28;20034;-75
2023/09/18 02:48:05;;;;;;;9.40;4.38;;;20.10;92.10;;;;;;4953631;28;20050;-77
2023/09/18 02:50:31;;;;;;;8.25;3.83;;;20.10;91.70;;;;;;4970202;28;20015;-77
2023/09/18 02:52:57;;;;;;;6.95;3.53;;;20.10;91.20;;;;;;4961056;28;20037;-77
2023/09/18 02:55:22;;;;;;;6.70;3.38;;;20.10;91.20;;;;;;4953508;28;20070;-74
2023/09/18 02:57:48;;;;;;;8.50;3.63;;;20.00;91.00;;;;;;4945649;28;20035;-75
2023/09/18 03:00:14;;;;;;;8.10;3.42;;;20.10;91.00;;;;;;4939189;28;20023;-77
2023/09/18 03:02:39;;;;;;;7.10;3.42;;;20.10;91.00;;;;;;4939254;28;20221;-75
2023/09/18 03:05:05;;;;;;;7.00;3.40;;;20.00;91.10;;;;;;4972713;28;20018;-76
2023/09/18 03:07:31;;;;;;;7.03;3.30;;;20.00;91.30;;;;;;4961380;28;20603;-76
2023/09/18 03:09:57;;;;;;;7.25;3.50;;;20.00;91.50;;;;;;4938933;28;20023;-75
2023/09/18 03:12:22;;;;;;;7.10;3.30;;;19.90;91.60;;;;;;4946055;28;20035;-75
2023/09/18 03:14:48;;;;;;;7.68;3.80;;;19.90;91.70;;;;;;4944394;28;20382;-74
2023/09/18 03:17:14;;;;;;;8.23;3.75;;;19.90;91.80;;;;;;4942528;28;20472;-75
2023/09/18 03:19:39;;;;;;;11.55;4.30;;;19.90;92.00;;;;;;4945333;28;20027;-75
2023/09/18 03:22:05;;;;;;;8.85;4.18;;;19.90;92.20;;;;;;4946163;28;20104;-75
2023/09/18 03:24:31;;;;;;;6.78;3.65;;;19.90;92.20;;;;;;4937135;28;20059;-78
2023/09/18 03:26:56;;;;;;;7.50;3.80;;;19.90;92.30;;;;;;4940558;28;20487;-75
2023/09/18 03:29:22;;;;;;;6.88;3.70;;;19.80;92.30;;;;;;4957160;28;20042;-76
2023/09/18 03:31:48;;;;;;;8.38;4.00;;;19.80;92.50;;;;;;4959442;28;20033;-79
2023/09/18 03:34:13;;;;;;;7.53;3.67;;;19.80;92.60;;;;;;4949049;28;20363;-76
2023/09/18 03:36:39;;;;;;;7.47;4.30;;;19.80;92.80;;;;;;4949024;28;20343;-75
2023/09/18 03:39:05;;;;;;;10.60;4.00;;;19.70;92.90;;;;;;5011028;28;20119;-76
2023/09/18 03:41:33;;;;;;;9.82;4.50;;;19.60;92.90;;;;;;5034516;28;20091;-76
2023/09/18 03:44:00;;;;;;;9.45;4.18;;;19.60;93.00;;;;;;4955070;28;20039;-76
2023/09/18 03:46:26;;;;;;;8.90;4.15;;;19.60;93.00;;;;;;4957578;28;20337;-78
2023/09/18 03:48:52;;;;;;;8.95;3.83;;;19.60;93.10;;;;;;4947290;28;20028;-76
2023/09/18 03:51:19;;;;;;;8.27;4.05;;;19.60;93.10;;;;;;4939586;28;20135;-76
2023/09/18 03:53:45;;;;;;;7.75;4.53;;;19.50;93.00;;;;;;4969992;28;20047;-76
2023/09/18 03:56:10;;;;;;;10.05;4.30;;;19.50;93.00;;;;;;4944770;28;20027;-77
2023/09/18 03:58:36;;;;;;;9.10;3.83;;;19.50;93.00;;;;;;4949033;28;20117;-77
2023/09/18 04:01:01;;;;;;;9.25;4.25;;;19.50;93.10;;;;;;4959287;28;20076;-79
2023/09/18 04:03:27;;;;;;;6.60;3.55;;;19.50;93.10;;;;;;4941184;28;20049;-78
2023/09/18 04:05:53;;;;;;;8.30;3.92;;;19.50;93.00;;;;;;4936952;28;20355;-77
2023/09/18 04:08:19;;;;;;;9.75;4.18;;;19.40;93.00;;;;;;4944897;28;20035;-77
2023/09/18 04:10:45;;;;;;;7.65;3.95;;;19.30;93.10;;;;;;4934184;28;20978;-78
2023/09/18 04:13:11;;;;;;;7.55;3.85;;;19.30;93.20;;;;;;4936792;28;20508;-78
2023/09/18 04:15:37;;;;;;;6.95;3.88;;;19.40;93.20;;;;;;4943141;28;20545;-76
2023/09/18 04:18:05;;;;;;;7.78;3.63;;;19.30;93.10;;;;;;4944224;28;20068;-76
2023/09/18 04:20:31;;;;;;;6.93;4.13;;;19.30;93.10;;;;;;4938737;28;20027;-75
2023/09/18 04:23:26;;;;;;;8.35;3.45;;;19.30;93.10;;;;;;4943858;28;20043;-75
2023/09/18 04:25:53;;;;;;;7.85;3.80;;;19.30;93.10;;;;;;4944243;28;20051;-75
2023/09/18 04:28:20;;;;;;;8.95;3.45;;;19.20;93.20;;;;;;4957886;28;20230;-74
2023/09/18 04:30:46;;;;;;;8.00;3.35;;;19.20;93.10;;;;;;4962496;28;20023;-77
2023/09/18 04:33:13;;;;;;;5.80;3.30;;;19.20;93.00;;;;;;4966957;28;20249;-78
2023/09/18 04:35:39;;;;;;;7.60;3.45;;;19.20;93.00;;;;;;4961334;28;20038;-76
2023/09/18 04:38:08;;;;;;;8.05;3.38;;;19.20;93.00;;;;;;4947217;28;20065;-76
2023/09/18 04:40:34;;;;;;;7.85;3.22;;;19.10;93.00;;;;;;4939190;28;20058;-75
2023/09/18 04:43:00;;;;;;;5.80;3.28;;;19.10;93.00;;;;;;4932586;28;20093;-78
2023/09/18 04:45:26;;;;;;;9.77;3.42;;;19.10;93.00;;;;;;4942040;28;20626;-76
2023/09/18 04:47:55;;;;;;;8.70;3.53;;;19.10;92.90;;;;;;4950205;28;20058;-75
2023/09/18 04:50:21;;;;;;;6.55;3.42;;;19.10;92.90;;;;;;4946473;28;20106;-76
2023/09/18 04:52:47;;;;;;;6.30;3.60;;;19.00;92.90;;;;;;4948025;28;20043;-74
2023/09/18 04:55:13;;;;;;;6.78;3.13;;;19.00;92.90;;;;;;4939502;28;20360;-74
2023/09/18 04:57:39;;;;;;;7.57;3.28;;;19.00;92.90;;;;;;4941311;28;20488;-74
2023/09/18 05:00:12;;;;;;;6.97;3.28;;;18.90;92.80;;;;;;4942588;28;20046;-75
2023/09/18 05:02:38;;;;;;;7.40;3.37;;;18.90;92.80;;;;;;4943857;28;20039;-75
2023/09/18 05:05:04;;;;;;;7.93;3.00;;;18.90;92.80;;;;;;4961237;28;20050;-77
2023/09/18 05:07:30;;;;;;;9.75;3.22;;;18.90;92.80;;;;;;4975131;28;20038;-73
2023/09/18 05:09:56;;;;;;;7.85;3.30;;;18.90;92.80;;;;;;4962057;28;20030;-75
2023/09/18 05:12:23;;;;;;;5.95;3.38;;;18.80;92.70;;;;;;4961457;28;20035;-76
2023/09/18 05:14:49;;;;;;;7.38;3.13;;;18.80;92.80;;;;;;4945536;28;20046;-75
2023/09/18 05:17:16;;;;;;;7.93;3.50;;;18.70;92.80;;;;;;4946293;28;20026;-75
2023/09/18 05:19:42;;;;;;;7.28;3.53;;;18.70;92.90;;;;;;4942707;28;20133;-77
2023/09/18 05:22:12;;;;;;;6.43;3.03;;;18.70;92.90;;;;;;4940825;28;20082;-75
2023/09/18 05:24:38;;;;;;;7.78;3.88;;;18.60;92.90;;;;;;4938282;28;20039;-75
2023/09/18 05:27:06;;;;;;;6.65;3.13;;;18.60;93.00;;;;;;4935767;28;20043;-78
2023/09/18 05:29:32;;;;;;;9.55;3.42;;;18.60;92.90;;;;;;4960590;28;20475;-77
2023/09/18 05:31:57;;;;;;;8.02;3.30;;;18.60;92.90;;;;;;4974789;28;20104;-76
2023/09/18 05:34:23;;;;;;;6.80;3.38;;;18.60;92.90;;;;;;4960117;28;20430;-75
2023/09/18 05:36:49;;;;;;;5.82;3.30;;;18.60;93.00;;;;;;4950004;28;20473;-76
2023/09/18 05:39:15;;;;;;;6.45;3.00;;;18.60;93.10;;;;;;4943262;28;20035;-73
2023/09/18 05:41:42;;;;;;;8.52;3.80;;;18.60;93.10;;;;;;4939800;28;20429;-73
2023/09/18 05:44:08;;;;;;;7.68;3.28;;;18.60;93.00;;;;;;4948254;28;20043;-73
2023/09/18 05:46:35;;;;;;;8.70;4.38;;;18.60;93.00;;;;;;4954290;28;20027;-73
2023/09/18 05:49:01;;;;;;;7.63;3.83;;;18.50;93.10;;;;;;4959635;28;20058;-73
2023/09/18 05:51:27;;;;;;;9.80;4.10;;;18.50;93.20;;;;;;4958695;28;20019;-74
2023/09/18 05:53:53;;;;;;;9.10;3.92;;;18.50;93.20;;;;;;4957590;28;20127;-73
2023/09/18 05:56:18;;;;;;;7.50;3.45;;;18.50;93.20;;;;;;4958202;28;20508;-74
2023/09/18 05:58:44;;;;;;;9.40;4.25;;;18.50;93.30;;;;;;4956810;28;20039;-73
2023/09/18 06:01:10;;;;;;;8.60;4.15;;;18.50;93.30;;;;;;4954768;28;20023;-72
2023/09/18 06:03:35;;;;;;;8.57;4.00;;;18.40;93.40;;;;;;4937748;28;20151;-74
2023/09/18 06:06:05;;;;;;;10.10;4.70;;;18.40;93.40;;;;;;4938354;28;20108;-73
2023/09/18 06:08:31;;;;;;;8.32;4.68;;;18.50;93.50;;;;;;4937663;28;20339;-73
2023/09/18 06:10:59;;;;;;;10.68;5.15;;;18.50;93.40;;;;;;4939625;28;20090;-74
2023/09/18 06:13:26;;;;;;;7.55;4.47;;;18.50;93.40;;;;;;4935181;28;20720;-73
2023/09/18 06:15:54;;;;;;;12.90;4.95;;;18.40;93.40;;;;;;4944805;28;20533;-73
2023/09/18 06:18:20;;;;;;;10.25;4.30;;;18.40;93.50;;;;;;4942589;28;20494;-73
2023/09/18 06:20:46;;;;;;;10.13;4.78;;;18.40;93.40;;;;;;4942067;28;20114;-75
2023/09/18 06:23:12;;;;;;;8.27;4.43;;;18.40;93.40;;;;;;4952917;28;20031;-75
2023/09/18 06:25:39;;;;;;;10.65;4.93;;;18.40;93.40;;;;;;4957418;28;20046;-74
2023/09/18 06:28:04;;;;;;;8.85;5.03;;;18.40;93.30;;;;;;4953772;28;20498;-76
2023/09/18 06:30:31;;;;;;;10.73;4.50;;;18.40;93.30;;;;;;4940316;28;20035;-74
2023/09/18 06:32:56;;;;;;;10.80;4.25;;;18.60;93.30;;;;;;4943293;28;20093;-74
2023/09/18 06:35:22;;;;;;;10.77;4.60;;;18.60;92.80;;;;;;4956790;28;20027;-73
2023/09/18 06:37:48;;;;;;;10.63;4.15;;;18.70;92.50;;;;;;4958448;28;20031;-74
2023/09/18 06:40:14;;;;;;;8.20;4.22;;;18.70;92.20;;;;;;4957590;28;20035;-76
2023/09/18 06:42:39;;;;;;;8.90;4.68;;;18.70;92.30;;;;;;4957655;28;20097;-75
2023/09/18 06:45:06;;;;;;;11.60;5.30;;;18.70;92.20;;;;;;4957268;28;20458;-75
2023/09/18 06:47:33;;;;;;;8.38;5.25;;;18.70;92.20;;;;;;4956853;28;20058;-77
2023/09/18 06:50:00;;;;;;;8.98;4.45;;;18.60;92.20;;;;;;4958734;28;20471;-73
2023/09/18 06:52:27;;;;;;;10.45;5.07;;;18.70;92.20;;;;;;4957781;28;20481;-72
2023/09/18 06:54:53;;;;;;;14.13;6.13;;;18.70;92.10;;;;;;4960883;28;20505;-76
2023/09/18 06:57:21;;;;;;;8.13;4.97;;;18.60;92.40;;;;;;4959661;28;20038;-74
2023/09/18 06:59:46;;;;;;;12.07;5.47;;;18.70;92.50;;;;;;4961153;28;20031;-75
2023/09/18 07:02:14;;;;;;;9.70;5.57;;;18.80;92.30;;;;;;4959538;28;20733;-75
2023/09/18 07:04:44;;;;;;;14.07;6.55;;;18.90;92.10;;;;;;4960494;28;20061;-78
2023/09/18 07:07:12;;;;;;;9.20;5.63;;;19.00;91.70;;;;;;4962564;28;20122;-76
2023/09/18 07:09:38;;;;;;;10.50;5.60;;;19.00;91.50;;;;;;4960992;28;20039;-76
2023/09/18 07:12:04;;;;;;;10.70;5.45;;;19.00;91.50;;;;;;4968682;28;20974;-79
2023/09/18 07:14:30;;;;;;;10.55;5.90;;;19.00;91.60;;;;;;4960609;28;20128;-76
2023/09/18 07:16:56;;;;;;;10.00;5.13;;;19.10;91.40;;;;;;4948515;28;20031;-74
2023/09/18 07:19:22;;;;;;;9.75;5.70;;;19.10;91.20;;;;;;4940907;28;20035;-75
2023/09/18 07:21:47;;;;;;;11.95;6.28;;;19.30;91.20;;;;;;4946388;28;20035;-74
2023/09/18 07:24:16;;;;;;;8.88;6.13;;;19.50;90.60;;;;;;4953208;28;20034;-77
2023/09/18 07:26:47;;;;;;;11.52;6.10;;;19.70;90.20;;;;;;4961456;28;20439;-74
2023/09/18 07:29:14;;;;;;;9.73;5.78;;;19.80;89.30;;;;;;4954460;28;20069;-73
2023/09/18 07:31:43;;;;;;;11.10;5.20;;;20.10;89.00;;;;;;4961230;28;20100;-75
2023/09/18 07:34:10;;;;;;;9.35;5.95;;;20.30;88.40;;;;;;4959854;28;20516;-73
2023/09/18 07:36:36;;;;;;;10.30;5.90;;;20.30;87.60;;;;;;4961535;28;20039;-77
2023/09/18 07:39:02;;;;;;;10.77;6.22;;;20.30;87.80;;;;;;4955205;28;20042;-78
2023/09/18 07:41:28;;;;;;;10.60;6.78;;;20.20;87.60;;;;;;4961262;28;20039;-74
2023/09/18 07:43:54;;;;;;;11.23;6.30;;;20.10;87.80;;;;;;4958831;28;20377;-74
2023/09/18 07:46:19;;;;;;;11.07;6.22;;;20.10;88.00;;;;;;4960703;28;20031;-74
2023/09/18 07:48:45;;;;;;;10.00;6.82;;;20.00;88.40;;;;;;4965779;28;20107;-72
2023/09/18 07:51:13;;;;;;;9.95;6.65;;;20.00;88.30;;;;;;4990381;28;20500;-74
2023/09/18 07:53:39;;;;;;;11.35;6.28;;;20.00;88.30;;;;;;4962988;28;20054;-73
2023/09/18 07:56:05;;;;;;;12.15;6.75;;;19.90;88.40;;;;;;4965928;28;20034;-78
2023/09/18 07:58:33;;;;;;;10.95;7.53;;;19.80;88.60;;;;;;4971558;28;20482;-76
2023/09/18 08:00:59;;;;;;;8.90;6.38;;;19.90;88.80;;;;;;4970793;28;20027;-82
2023/09/18 08:03:28;;;;;;;11.05;6.82;;;19.90;88.70;;;;;;4957553;28;20528;-74
2023/09/18 08:05:54;;;;;;;10.77;6.45;;;19.80;88.60;;;;;;4938653;28;20035;-75
2023/09/18 08:08:21;;;;;;;12.95;7.82;;;19.90;88.80;;;;;;4979258;28;20733;-77
2023/09/18 08:10:48;;;;;;;10.95;6.32;;;19.90;88.70;;;;;;5043874;28;20108;-78
2023/09/18 08:13:13;;;;;;;10.90;6.60;;;20.00;88.40;;;;;;4974462;28;20078;-78
2023/09/18 08:15:39;;;;;;;11.90;5.75;;;20.10;88.50;;;;;;4940846;28;20040;-76
2023/09/18 08:18:05;;;;;;;11.50;6.65;;;20.10;87.90;;;;;;4939845;28;20035;-75
2023/09/18 08:20:32;;;;;;;11.38;6.45;;;20.10;88.10;;;;;;4953668;28;20042;-79
2023/09/18 08:23:01;;;;;;;10.05;5.68;;;20.10;87.90;;;;;;4943382;28;20038;-76
2023/09/18 08:25:27;;;;;;;10.90;6.40;;;20.20;88.00;;;;;;4941625;28;20471;-78
2023/09/18 08:27:53;;;;;;;11.23;5.95;;;20.30;87.60;;;;;;4948465;28;20047;-74
2023/09/18 08:30:20;;;;;;;12.20;6.63;;;20.30;87.40;;;;;;4966752;28;20031;-74
2023/09/18 08:32:47;;;;;;;11.13;5.90;;;20.40;86.60;;;;;;4965290;28;20100;-76
2023/09/18 08:35:13;;;;;;;9.77;5.35;;;20.60;86.10;;;;;;4962924;28;20031;-77
2023/09/18 08:37:42;;;;;;;10.73;5.60;;;20.60;86.00;;;;;;4963573;28;20172;-77
2023/09/18 08:40:10;;;;;;;11.77;5.72;;;20.70;85.20;;;;;;4956622;28;20039;-77
2023/09/18 08:42:39;;;;;;;9.18;5.60;;;21.00;84.90;;;;;;4961155;28;20058;-75
2023/09/18 08:45:10;;;;;;;12.50;5.30;;;21.10;84.50;;;;;;4964101;28;20027;-77
2023/09/18 08:47:40;;;;;;;14.50;5.20;;;21.10;83.90;;;;;;4955943;28;20027;-80
2023/09/18 08:50:08;;;;;;;12.05;4.97;;;21.30;83.80;;;;;;4966134;28;20073;-78
2023/09/18 08:52:35;;;;;;;11.23;5.10;;;21.30;83.70;;;;;;4957552;28;20040;-81
2023/09/18 08:55:02;;;;;;;9.52;4.35;;;21.40;83.50;;;;;;4955563;28;20297;-81
2023/09/18 08:57:30;;;;;;;9.27;4.70;;;21.40;82.70;;;;;;4956636;28;20536;-81
2023/09/18 08:59:57;;;;;;;8.82;4.30;;;21.30;82.30;;;;;;4946787;28;20034;-79
2023/09/18 09:02:23;;;;;;;8.93;4.55;;;21.40;81.90;;;;;;4949201;28;20041;-79
2023/09/18 09:04:49;;;;;;;9.43;5.25;;;21.10;82.40;;;;;;4948563;28;20387;-80
2023/09/18 09:07:15;;;;;;;11.15;5.05;;;21.10;82.60;;;;;;4950756;28;20035;-80
2023/09/18 09:09:41;;;;;;;10.45;4.97;;;20.90;83.10;;;;;;4946845;28;20448;-75
2023/09/18 09:12:07;;;;;;;10.10;5.07;;;20.90;83.60;;;;;;4958698;28;20516;-76
2023/09/18 09:14:33;;;;;;;12.80;5.65;;;20.80;83.80;;;;;;4946708;28;20043;-78
2023/09/18 09:16:59;;;;;;;11.25;5.65;;;20.70;84.20;;;;;;4943046;28;20478;-77
2023/09/18 09:19:36;;;;;;;10.43;5.57;;;20.60;84.40;;;;;;4959084;28;20035;-83
2023/09/18 09:22:02;;;;;;;10.75;4.95;;;20.60;84.90;;;;;;4961857;28;20379;-80
2023/09/18 09:24:38;;;;;;;8.82;5.20;;;20.60;85.00;;;;;;4942654;28;20043;-75
2023/09/18 09:27:04;;;;;;;8.13;5.10;;;20.60;85.10;;;;;;4955682;28;20046;-81
2023/09/18 09:29:29;;;;;;;11.43;6.07;;;20.50;85.40;;;;;;4959174;28;20055;-77
2023/09/18 09:31:58;;;;;;;9.93;5.93;;;20.50;85.30;;;;;;4964270;28;20039;-75
2023/09/18 09:34:26;;;;;;;10.52;6.03;;;20.50;85.70;;;;;;4967810;28;20053;-76
2023/09/18 09:36:55;;;;;;;10.00;5.68;;;20.50;85.60;;;;;;4964011;28;20051;-75
2023/09/18 09:39:24;;;;;;;9.75;5.07;;;20.60;85.00;;;;;;4963548;28;20039;-76
2023/09/18 09:41:53;;;;;;;9.60;5.57;;;20.90;84.90;;;;;;4960677;28;20028;-77
2023/09/18 09:44:20;;;;;;;11.23;5.03;;;21.30;84.00;;;;;;4960899;28;20086;-75
2023/09/18 09:46:51;;;;;;;10.43;5.10;;;21.70;83.70;;;;;;4958753;28;20920;-75
2023/09/18 09:49:19;;;;;;;10.18;5.22;;;21.90;81.90;;;;;;4957379;28;20043;-77
2023/09/18 09:51:45;;;;;;;8.55;4.68;;;22.00;81.70;;;;;;4966457;28;20034;-77
2023/09/18 09:54:12;;;;;;;8.02;4.65;;;22.20;80.70;;;;;;4962581;28;20100;-77
2023/09/18 09:56:50;;;;;;;9.93;5.28;;;22.40;80.20;;;;;;4963828;28;20030;-75
2023/09/18 09:59:18;;;;;;;8.27;5.30;;;22.50;79.50;;;;;;4962456;28;20869;-82
2023/09/18 10:01:48;;;;;;;10.55;4.82;;;22.40;80.10;;;;;;4964881;28;20027;-76
2023/09/18 10:04:17;;;;;;;9.77;4.65;;;22.60;79.20;;;;;;4962921;28;20133;-79
2023/09/18 10:06:52;;;;;;;9.80;4.72;;;22.90;78.60;;;;;;4962317;28;20023;-77
2023/09/18 10:09:20;;;;;;;8.25;4.90;;;23.00;78.00;;;;;;4960061;28;20050;-77
2023/09/18 10:11:52;;;;;;;10.63;4.72;;;23.10;77.40;;;;;;4963595;28;20023;-75
2023/09/18 10:14:29;;;;;;;6.78;4.22;;;23.20;77.00;;;;;;4960237;28;20129;-76
2023/09/18 10:16:56;;;;;;;9.35;4.90;;;23.10;77.40;;;;;;4964368;28;20058;-75
2023/09/18 10:19:33;;;;;;;8.30;3.95;;;23.10;77.10;;;;;;4964570;28;20023;-75
2023/09/18 10:22:05;;;;;;;7.47;4.40;;;23.10;77.00;;;;;;4961245;28;20043;-76
2023/09/18 10:24:37;;;;;;;9.38;4.13;;;23.00;76.80;;;;;;4963202;28;20050;-76
2023/09/18 10:27:05;;;;;;;6.35;3.47;;;22.90;76.60;;;;;;4963415;28;20107;-76
2023/09/18 10:29:34;;;;;;;8.30;3.78;;;22.90;76.20;;;;;;5033411;28;20037;-76
2023/09/18 10:32:02;;;;;;;8.90;4.38;;;22.90;76.30;;;;;;5027947;28;20066;-77
2023/09/18 10:34:30;;;;;;;13.35;4.45;;;23.10;75.30;;;;;;4943116;28;20105;-77
2023/09/18 10:36:56;;;;;;;10.05;4.05;;;23.30;74.60;;;;;;4939062;28;20043;-78
2023/09/18 10:39:26;;;;;;;8.38;3.67;;;23.30;75.40;;;;;;5027637;28;20069;-80
2023/09/18 10:41:57;;;;;;;9.48;3.55;;;23.60;73.20;;;;;;5030082;28;20025;-81
2023/09/18 10:44:23;;;;;;;7.20;3.50;;;23.60;73.80;;;;;;4962896;28;20513;-75
2023/09/18 10:46:51;;;;;;;9.85;3.60;;;23.70;73.90;;;;;;4964905;28;20491;-74
2023/09/18 10:49:18;;;;;;;12.40;3.50;;;24.00;72.80;;;;;;4963730;28;20366;-78
2023/09/18 10:51:45;;;;;;;7.13;3.20;;;24.20;71.50;;;;;;4964208;28;20061;-78
2023/09/18 10:54:15;;;;;;;7.00;3.15;;;24.10;72.40;;;;;;4975251;28;20043;-77
2023/09/18 10:56:45;;;;;;;6.80;3.50;;;24.10;72.30;;;;;;4959647;28;20027;-77
2023/09/18 10:59:10;;;;;;;7.63;3.28;;;24.30;71.10;;;;;;4961175;28;20453;-79
2023/09/18 11:01:36;;;;;;;6.95;2.90;;;24.30;70.80;;;;;;4960111;28;20023;-78
2023/09/18 11:04:08;;;;;;;8.05;3.50;;;24.30;69.80;;;;;;4956423;28;20114;-82
2023/09/18 11:06:52;;;;;;;8.55;3.40;;;23.90;71.20;;;;;;4961764;28;20039;-77
2023/09/18 11:09:30;;;;;;;7.78;4.22;;;24.00;72.00;;;;;;4962319;28;20033;-77
2023/09/18 11:12:03;;;;;;;7.93;4.00;;;24.10;72.00;;;;;;4959703;28;20042;-81
2023/09/18 11:14:49;;;;;;;8.43;3.80;;;24.10;72.60;;;;;;4956738;28;20077;-76
2023/09/18 11:17:38;;;;;;;7.95;3.22;;;24.60;70.50;;;;;;4956163;28;20455;-79
2023/09/18 11:20:27;;;;;;;6.40;2.90;;;24.50;70.30;;;;;;4959761;28;20023;-76
2023/09/18 11:23:09;;;;;;;8.55;3.78;;;24.50;70.40;;;;;;4964007;28;20458;-75
2023/09/18 11:25:37;;;;;;;7.10;3.53;;;24.50;70.30;;;;;;4959941;28;20043;-79
2023/09/18 11:28:06;;;;;;;6.63;3.25;;;24.20;70.80;;;;;;4955462;28;20054;-81
2023/09/18 11:30:56;;;;;;;6.07;3.03;;;24.10;70.20;;;;;;5051630;28;20504;-77
2023/09/18 11:33:39;;;;;;;7.15;3.20;;;24.10;69.50;;;;;;5051553;28;20072;-80
2023/09/18 11:36:12;;;;;;;4.85;2.85;;;23.70;70.50;;;;;;5059496;28;20531;-78
2023/09/18 11:39:02;;;;;;;9.37;2.97;;;23.90;71.30;;;;;;5055128;28;20459;-78
2023/09/18 11:41:38;;;;;;;6.50;3.10;;;24.20;71.00;;;;;;5056677;28;20033;-79
2023/09/18 11:44:16;;;;;;;8.98;2.92;;;24.60;69.90;;;;;;5049732;28;20124;-79
2023/09/18 11:46:52;;;;;;;5.50;3.03;;;24.70;68.40;;;;;;5045478;28;21352;-82
2023/09/18 11:49:22;;;;;;;6.03;3.20;;;24.60;67.20;;;;;;5052564;28;20094;-77
2023/09/18 11:51:49;;;;;;;7.00;3.05;;;24.80;67.80;;;;;;5050224;28;20482;-78
2023/09/18 11:54:16;;;;;;;6.57;2.67;;;24.80;67.70;;;;;;5056416;28;20020;-76
2023/09/18 11:56:43;;;;;;;8.13;3.53;;;24.90;67.50;;;;;;5049335;28;20029;-79
2023/09/18 11:59:10;;;;;;;8.50;3.25;;;24.70;68.20;;;;;;5053431;28;20100;-79
2023/09/18 12:01:36;;;;;;;12.70;3.25;;;24.80;68.00;;;;;;5051013;28;20245;-77
2023/09/18 12:04:09;;;;;;;6.07;2.72;;;25.00;68.00;;;;;;5044687;28;20029;-75
2023/09/18 12:06:36;;;;;;;6.93;2.73;;;25.00;66.40;;;;;;5049934;28;20032;-76
2023/09/18 12:09:03;;;;;;;6.43;2.72;;;25.00;66.20;;;;;;5053444;28;20033;-75
2023/09/18 12:11:29;;;;;;;5.53;3.00;;;25.10;66.00;;;;;;5049719;28;20657;-79
2023/09/18 12:13:55;;;;;;;8.00;2.97;;;24.90;66.00;;;;;;5051083;28;20028;-77
2023/09/18 12:16:21;;;;;;;9.07;2.78;;;24.60;66.60;;;;;;5046722;28;20017;-77
2023/09/18 12:18:49;;;;;;;6.35;2.88;;;24.60;66.00;;;;;;5051874;28;20040;-79
2023/09/18 12:21:16;;;;;;;7.15;3.08;;;24.50;66.50;;;;;;5047293;28;20388;-77
2023/09/18 12:23:43;;;;;;;6.75;2.83;;;24.40;66.20;;;;;;5048609;28;20037;-78
2023/09/18 12:26:15;;;;;;;6.80;3.10;;;24.40;65.80;;;;;;5052559;28;20353;-79
2023/09/18 12:28:42;;;;;;;6.75;2.92;;;24.80;65.80;;;;;;5069114;28;20753;-77
2023/09/18 12:31:15;;;;;;;7.20;2.90;;;25.00;65.00;;;;;;5065925;28;20443;-78
2023/09/18 12:33:43;;;;;;;6.32;2.70;;;25.20;64.60;;;;;;5068892;28;20032;-79
2023/09/18 12:36:10;;;;;;;5.63;2.65;;;25.40;63.50;;;;;;5062696;28;20043;-82
2023/09/18 12:38:37;;;;;;;6.13;2.88;;;25.30;64.40;;;;;;5062141;28;20068;-77
2023/09/18 12:41:06;;;;;;;8.27;3.10;;;25.50;64.10;;;;;;5056594;28;20411;-80
2023/09/18 12:43:41;;;;;;;8.70;2.80;;;25.60;63.30;;;;;;5051343;28;20368;-81
2023/09/18 12:46:08;;;;;;;6.32;2.72;;;25.70;62.60;;;;;;5052066;28;20035;-80